Time;durP1;ratioP1;P1;durP2;ratioP2;P2;SDS_P1;SDS_P2;PMS_P1;PMS_P2;Temp;Humidity;BMP_temperature;BMP_pressure;BME280_temperature;BME280_humidity;BME280_pressure;Samples;Min_cycle;Max_cycle;Signal;HPM_P1;HPM_P2
2021/08/18 00:02:14;;;;;;;4.00;2.60;;;;;;;17.23;75.40;101749.81;5157419;27;20137;-80
2021/08/18 00:04:40;;;;;;;6.15;3.15;;;;;;;17.16;75.97;101749.22;5158108;27;20175;-80
2021/08/18 00:07:06;;;;;;;3.97;2.65;;;;;;;17.19;75.71;101751.75;5158799;27;20034;-81
2021/08/18 00:09:32;;;;;;;5.20;3.55;;;;;;;17.21;75.90;101747.25;5154686;27;20491;-81
2021/08/18 00:11:58;;;;;;;4.65;3.45;;;;;;;17.21;75.92;101747.25;5135818;27;20058;-79
2021/08/18 00:14:24;;;;;;;5.28;3.45;;;;;;;17.26;76.10;101739.09;5154535;27;20095;-78
2021/08/18 00:16:50;;;;;;;4.80;3.47;;;;;;;17.17;76.36;101743.03;5141810;27;20047;-81
2021/08/18 00:19:16;;;;;;;6.53;4.03;;;;;;;17.16;76.58;101736.03;5131571;27;20093;-79
2021/08/18 00:21:42;;;;;;;7.35;3.80;;;;;;;17.10;76.40;101717.88;5157514;27;20099;-79
2021/08/18 00:24:08;;;;;;;4.70;3.67;;;;;;;17.17;76.37;101724.56;5139199;27;20042;-80
2021/08/18 00:26:34;;;;;;;6.28;4.07;;;;;;;17.17;76.61;101719.28;5156509;27;20455;-78
2021/08/18 00:29:03;;;;;;;5.05;3.40;;;;;;;17.28;76.38;101724.03;5155548;27;20042;-79
2021/08/18 00:31:30;;;;;;;6.68;4.30;;;;;;;17.19;76.78;101721.88;5157088;27;20065;-78
2021/08/18 00:33:56;;;;;;;7.00;4.72;;;;;;;17.19;76.83;101727.16;5156320;27;20406;-79
2021/08/18 00:36:22;;;;;;;8.13;4.60;;;;;;;17.08;77.01;101711.84;5138927;27;20043;-79
2021/08/18 00:38:48;;;;;;;6.25;4.53;;;;;;;17.21;76.75;101726.13;5157261;27;20061;-78
2021/08/18 00:41:14;;;;;;;7.65;4.80;;;;;;;17.24;76.78;101725.13;5156191;27;20380;-79
2021/08/18 00:43:40;;;;;;;5.75;5.20;;;;;;;17.16;77.28;101722.84;5139949;27;20092;-78
2021/08/18 00:46:07;;;;;;;6.60;5.07;;;;;;;17.02;77.26;101702.44;5146372;27;20043;-79
2021/08/18 00:48:33;;;;;;;7.05;5.15;;;;;;;17.13;77.19;101710.66;5151759;27;20051;-78
2021/08/18 00:51:01;;;;;;;9.13;6.18;;;;;;;17.10;77.79;101725.78;5166357;27;20045;-78
2021/08/18 00:53:27;;;;;;;6.55;5.53;;;;;;;17.06;77.82;101726.88;5178706;27;20039;-78
2021/08/18 00:55:55;;;;;;;7.30;5.53;;;;;;;17.02;78.01;101718.28;5160380;27;20051;-78
2021/08/18 00:58:21;;;;;;;7.10;5.57;;;;;;;16.96;77.84;101694.84;5143506;27;20047;-80
2021/08/18 01:00:47;;;;;;;7.22;5.30;;;;;;;17.01;77.73;101702.53;5151051;27;20046;-79
2021/08/18 01:03:14;;;;;;;5.55;5.00;;;;;;;17.08;77.88;101717.97;5146510;27;20056;-78
2021/08/18 01:05:41;;;;;;;7.57;5.80;;;;;;;17.09;78.09;101710.91;5154479;27;20038;-79
2021/08/18 01:08:07;;;;;;;7.32;5.35;;;;;;;17.01;77.91;101697.25;5147428;27;20039;-78
2021/08/18 01:10:35;;;;;;;7.78;5.38;;;;;;;17.03;78.22;101706.78;5141407;27;20441;-79
2021/08/18 01:13:03;;;;;;;6.45;4.70;;;;;;;16.88;78.67;101679.38;5145252;27;20204;-78
2021/08/18 01:15:30;;;;;;;8.00;5.03;;;;;;;16.94;78.79;101700.19;5137837;27;20039;-78
2021/08/18 01:17:58;;;;;;;7.20;5.57;;;;;;;16.94;78.76;101694.03;5155922;27;20058;-79
2021/08/18 01:20:30;;;;;;;6.70;4.90;;;;;;;17.00;78.68;101692.91;5147265;27;20042;-78
2021/08/18 01:22:59;;;;;;;8.32;4.65;;;;;;;17.09;78.46;101695.09;5155162;27;20038;-79
2021/08/18 01:25:25;;;;;;;5.50;4.35;;;;;;;17.09;78.33;101690.66;5154732;27;20074;-78
2021/08/18 01:27:54;;;;;;;8.45;4.90;;;;;;;16.86;78.23;101654.84;5155525;27;20046;-79
2021/08/18 01:30:22;;;;;;;7.22;4.50;;;;;;;17.00;78.31;101683.19;5145832;27;20070;-79
2021/08/18 01:32:58;;;;;;;4.85;3.55;;;;;;;16.91;78.30;101666.00;5146391;27;20752;-79
2021/08/18 01:35:28;;;;;;;4.63;3.67;;;;;;;17.14;78.17;101685.16;5126206;27;20044;-79
2021/08/18 01:37:55;;;;;;;6.22;3.75;;;;;;;17.09;78.31;101676.63;5129085;27;20050;-79
2021/08/18 01:40:23;;;;;;;4.60;3.63;;;;;;;17.06;78.30;101669.69;5147225;27;20043;-79
2021/08/18 01:42:51;;;;;;;4.70;3.20;;;;;;;17.16;78.00;101670.09;5147891;27;20469;-79
2021/08/18 01:45:23;;;;;;;5.55;3.42;;;;;;;17.09;78.15;101660.81;5137174;27;20151;-79
2021/08/18 01:47:53;;;;;;;4.88;3.03;;;;;;;17.17;78.15;101681.50;5148650;27;20046;-81
2021/08/18 01:50:20;;;;;;;5.28;2.95;;;;;;;17.16;78.13;101675.34;5155439;27;20039;-79
2021/08/18 01:52:56;;;;;;;4.07;2.78;;;;;;;17.13;77.66;101665.81;5135964;27;20035;-82
2021/08/18 01:55:26;;;;;;;3.67;2.60;;;;;;;17.15;77.99;101681.59;5154752;27;20039;-79
2021/08/18 01:57:58;;;;;;;3.15;2.25;;;;;;;17.03;77.98;101663.72;5142955;27;20203;-79
2021/08/18 02:00:25;;;;;;;3.30;2.20;;;;;;;17.15;78.13;101683.38;5143462;27;20065;-78
2021/08/18 02:02:51;;;;;;;3.90;2.15;;;;;;;16.98;78.23;101661.34;5135296;27;20043;-79
2021/08/18 02:05:18;;;;;;;2.92;1.63;;;;;;;17.03;78.04;101669.88;5134675;27;20039;-79
2021/08/18 02:07:44;;;;;;;2.58;1.60;;;;;;;16.96;78.16;101653.47;5155279;27;20046;-82
2021/08/18 02:10:13;;;;;;;3.58;1.73;;;;;;;17.20;77.60;101676.06;5142003;27;20082;-80
2021/08/18 02:12:40;;;;;;;1.52;1.08;;;;;;;17.19;77.42;101677.03;5136303;27;20414;-81
2021/08/18 02:15:12;;;;;;;1.70;1.00;;;;;;;17.04;77.32;101661.03;5149755;27;20062;-81
2021/08/18 02:17:39;;;;;;;1.92;1.30;;;;;;;17.16;77.50;101671.88;5147831;27;20046;-79
2021/08/18 02:20:08;;;;;;;2.13;1.08;;;;;;;17.18;77.39;101672.66;5150016;27;20091;-80
2021/08/18 02:22:34;;;;;;;1.27;0.85;;;;;;;17.18;77.15;101670.03;5154970;27;20042;-80
2021/08/18 02:25:00;;;;;;;2.30;1.10;;;;;;;17.22;77.38;101663.66;5148918;27;21531;-79
2021/08/18 02:27:26;;;;;;;3.45;1.50;;;;;;;17.20;77.58;101666.38;5128358;27;20121;-81
2021/08/18 02:29:52;;;;;;;3.38;1.45;;;;;;;16.98;77.96;101636.72;5136866;27;20055;-82
2021/08/18 02:32:19;;;;;;;1.85;1.40;;;;;;;17.11;78.13;101656.28;5155463;27;20099;-81
2021/08/18 02:34:45;;;;;;;3.92;1.90;;;;;;;16.72;78.94;101615.13;5154972;27;20479;-80
2021/08/18 02:37:10;;;;;;;3.30;1.65;;;;;;;16.88;79.40;101642.44;5142675;27;20042;-80
2021/08/18 02:39:37;;;;;;;3.20;1.45;;;;;;;17.00;79.37;101658.63;5134987;27;20549;-80
2021/08/18 02:42:04;;;;;;;3.42;1.98;;;;;;;16.95;79.15;101641.25;5134961;27;20047;-82
2021/08/18 02:44:30;;;;;;;4.60;2.28;;;;;;;16.96;79.38;101647.38;5126563;27;20448;-80
2021/08/18 02:46:56;;;;;;;5.32;2.78;;;;;;;16.96;79.41;101650.00;5154458;27;20103;-79
2021/08/18 02:49:22;;;;;;;4.28;3.00;;;;;;;16.90;79.45;101637.09;5143884;27;20471;-79
2021/08/18 02:51:49;;;;;;;5.38;2.83;;;;;;;16.88;79.70;101631.91;5139285;27;20051;-80
2021/08/18 02:54:15;;;;;;;5.07;3.53;;;;;;;16.94;79.81;101651.84;5152342;27;20039;-79
2021/08/18 02:56:41;;;;;;;6.53;3.45;;;;;;;16.94;79.53;101639.53;5136644;27;20042;-80
2021/08/18 02:59:07;;;;;;;6.03;3.63;;;;;;;17.06;79.54;101638.03;5135457;27;20047;-81
2021/08/18 03:01:33;;;;;;;6.65;3.63;;;;;;;16.87;79.75;101621.41;5154276;27;20051;-79
2021/08/18 03:03:59;;;;;;;7.28;4.45;;;;;;;16.97;80.00;101633.25;5136154;27;20043;-82
2021/08/18 03:06:25;;;;;;;7.18;4.03;;;;;;;16.92;80.18;101635.28;5145516;27;20123;-81
2021/08/18 03:08:51;;;;;;;5.85;4.07;;;;;;;17.09;79.83;101645.81;5142394;27;20047;-79
2021/08/18 03:11:17;;;;;;;8.52;4.60;;;;;;;17.13;79.84;101644.72;5158349;27;20053;-79
2021/08/18 03:13:43;;;;;;;7.90;4.93;;;;;;;17.09;80.07;101647.63;5148572;27;20453;-79
2021/08/18 03:16:09;;;;;;;8.43;4.80;;;;;;;17.01;80.38;101639.22;5161070;27;20061;-79
2021/08/18 03:18:35;;;;;;;8.57;5.22;;;;;;;16.98;80.77;101637.59;5180679;27;20018;-77
2021/08/18 03:21:02;;;;;;;10.50;5.50;;;;;;;17.04;80.49;101644.31;5181263;27;20042;-77
2021/08/18 03:23:29;;;;;;;11.02;5.95;;;;;;;17.03;80.60;101638.22;5179008;27;20034;-78
2021/08/18 03:25:55;;;;;;;10.93;5.70;;;;;;;16.99;80.80;101639.31;5166173;27;20047;-78
2021/08/18 03:28:21;;;;;;;9.55;5.30;;;;;;;16.98;80.92;101639.38;5163579;27;20046;-79
2021/08/18 03:30:47;;;;;;;10.95;6.32;;;;;;;16.93;81.03;101640.47;5161317;27;20074;-81
2021/08/18 03:33:13;;;;;;;13.13;7.05;;;;;;;16.93;81.20;101636.94;5158677;27;20046;-79
2021/08/18 03:35:39;;;;;;;10.32;6.65;;;;;;;16.95;81.22;101635.97;5158611;27;20102;-85
2021/08/18 03:38:04;;;;;;;12.27;6.85;;;;;;;16.84;81.34;101624.22;5140880;27;20047;-79
2021/08/18 03:40:30;;;;;;;11.05;6.70;;;;;;;16.71;81.14;101587.03;5154892;27;20184;-79
2021/08/18 03:42:56;;;;;;;10.57;7.72;;;;;;;16.89;81.62;101628.31;5143897;27;20038;-82
2021/08/18 03:45:22;;;;;;;11.43;6.32;;;;;;;16.93;81.32;101629.03;5159967;27;20042;-79
2021/08/18 03:47:48;;;;;;;11.13;6.82;;;;;;;16.84;81.85;101625.06;5159359;27;20047;-79
2021/08/18 03:50:14;;;;;;;10.07;6.82;;;;;;;16.82;81.96;101629.56;5157905;27;20050;-83
2021/08/18 03:52:41;;;;;;;9.98;7.15;;;;;;;16.87;81.72;101626.69;5158143;27;20054;-79
2021/08/18 03:55:10;;;;;;;11.77;7.88;;;;;;;16.89;81.96;101633.56;5138727;27;20042;-80
2021/08/18 03:57:36;;;;;;;10.32;7.15;;;;;;;16.78;81.94;101614.81;5155631;27;20551;-80
2021/08/18 04:00:04;;;;;;;9.45;7.22;;;;;;;16.81;81.80;101617.31;5141493;27;20058;-80
2021/08/18 04:02:30;;;;;;;8.75;7.30;;;;;;;16.75;81.93;101596.53;5148175;27;20091;-81
2021/08/18 04:04:56;;;;;;;12.82;7.60;;;;;;;16.92;82.00;101622.09;5158103;27;20129;-81
2021/08/18 04:07:22;;;;;;;10.95;7.22;;;;;;;16.86;82.00;101625.84;5133217;27;20043;-79
2021/08/18 04:09:48;;;;;;;9.95;7.85;;;;;;;16.72;82.19;101604.56;5149012;27;20046;-80
2021/08/18 04:12:14;;;;;;;11.20;7.40;;;;;;;16.84;82.33;101622.41;5157766;27;20041;-79
2021/08/18 04:14:40;;;;;;;9.48;7.00;;;;;;;16.83;82.30;101622.50;5130012;27;20043;-81
2021/08/18 04:17:06;;;;;;;12.30;7.45;;;;;;;16.78;82.48;101609.53;5144378;27;20039;-81
2021/08/18 04:19:32;;;;;;;11.15;7.93;;;;;;;16.73;82.79;101604.50;5147645;27;20078;-80
2021/08/18 04:21:58;;;;;;;15.02;7.60;;;;;;;16.77;83.20;101619.25;5156883;27;20043;-80
2021/08/18 04:24:24;;;;;;;9.30;8.00;;;;;;;16.56;83.17;101586.88;5138046;27;20532;-81
2021/08/18 04:26:49;;;;;;;10.18;7.30;;;;;;;16.67;83.07;101596.03;5157383;27;20050;-80
2021/08/18 04:29:15;;;;;;;9.70;7.30;;;;;;;16.73;83.46;101608.91;5158212;27;20043;-80
2021/08/18 04:31:41;;;;;;;10.18;7.45;;;;;;;16.78;83.16;101615.69;5167422;27;20066;-79
2021/08/18 04:34:07;;;;;;;12.52;6.88;;;;;;;16.83;82.90;101604.88;5161147;27;20049;-81
2021/08/18 04:36:33;;;;;;;8.23;6.82;;;;;;;16.83;82.82;101594.34;5156232;27;20046;-80
2021/08/18 04:38:59;;;;;;;10.05;8.00;;;;;;;16.90;82.55;101603.66;5152918;27;20057;-80
2021/08/18 04:41:25;;;;;;;8.13;6.25;;;;;;;16.86;82.59;101610.00;5163294;27;20512;-80
2021/08/18 04:43:51;;;;;;;13.73;6.75;;;;;;;16.76;83.15;101598.22;5162336;27;20046;-83
2021/08/18 04:46:17;;;;;;;11.10;6.88;;;;;;;16.79;83.04;101603.34;5149264;27;20159;-79
2021/08/18 04:48:43;;;;;;;9.75;7.05;;;;;;;16.64;82.86;101575.97;5136456;27;20059;-80
2021/08/18 04:51:09;;;;;;;7.60;6.60;;;;;;;16.80;83.06;101597.13;5148784;27;20047;-79
2021/08/18 04:53:35;;;;;;;11.35;7.47;;;;;;;16.77;82.92;101600.78;5157050;27;20126;-79
2021/08/18 04:56:02;;;;;;;10.18;7.38;;;;;;;16.86;82.72;101596.00;5156767;27;20073;-79
2021/08/18 04:58:28;;;;;;;9.80;6.75;;;;;;;16.83;82.94;101593.50;5157443;27;20054;-81
2021/08/18 05:00:54;;;;;;;9.65;6.90;;;;;;;16.89;82.74;101590.53;5156974;27;20077;-80
2021/08/18 05:03:20;;;;;;;9.75;7.15;;;;;;;16.74;82.72;101566.66;5156831;27;20472;-84
2021/08/18 05:05:46;;;;;;;10.63;6.60;;;;;;;16.64;83.19;101561.00;5156599;27;20455;-79
2021/08/18 05:08:12;;;;;;;11.30;7.35;;;;;;;16.63;83.42;101564.56;5155726;27;20043;-81
2021/08/18 05:10:39;;;;;;;10.38;6.78;;;;;;;16.75;83.41;101583.34;5155335;27;20043;-78
2021/08/18 05:13:05;;;;;;;8.52;6.90;;;;;;;16.57;83.94;101562.22;5150938;27;20039;-79
2021/08/18 05:15:31;;;;;;;9.40;6.80;;;;;;;16.54;83.50;101557.13;5155589;27;20098;-79
2021/08/18 05:17:57;;;;;;;11.07;6.10;;;;;;;16.53;83.99;101560.69;5154807;27;20050;-79
2021/08/18 05:20:23;;;;;;;10.02;6.07;;;;;;;16.61;84.25;101576.97;5156230;27;20529;-79
2021/08/18 05:22:50;;;;;;;8.90;6.18;;;;;;;16.53;84.62;101572.97;5138527;27;20074;-80
2021/08/18 05:25:17;;;;;;;8.00;5.55;;;;;;;16.53;84.57;101573.84;5155493;27;20039;-80
2021/08/18 05:27:44;;;;;;;8.27;5.72;;;;;;;16.49;84.65;101572.31;5156046;27;20047;-78
2021/08/18 05:30:13;;;;;;;9.90;6.00;;;;;;;16.48;84.68;101583.78;5138177;27;20049;-82
2021/08/18 05:32:39;;;;;;;8.98;5.93;;;;;;;16.33;85.10;101561.63;5150070;27;20049;-79
2021/08/18 05:35:13;;;;;;;8.55;5.45;;;;;;;16.49;84.29;101573.16;5156640;27;20042;-80
2021/08/18 05:37:40;;;;;;;8.27;5.93;;;;;;;16.45;84.71;101574.25;5104021;27;20483;-82
2021/08/18 05:40:07;;;;;;;7.20;5.53;;;;;;;16.49;84.59;101572.31;5156015;27;20051;-82
2021/08/18 05:42:35;;;;;;;8.38;5.78;;;;;;;16.61;84.18;101573.47;5155387;27;20042;-79
2021/08/18 05:45:01;;;;;;;9.48;5.43;;;;;;;16.70;83.99;101569.50;5157620;27;20042;-81
2021/08/18 05:47:28;;;;;;;9.07;6.22;;;;;;;16.79;83.46;101580.44;5155001;27;20035;-78
2021/08/18 05:49:55;;;;;;;8.25;5.80;;;;;;;16.73;83.20;101564.09;5170208;27;20049;-78
2021/08/18 05:52:21;;;;;;;7.90;5.50;;;;;;;17.00;82.68;101590.03;5165654;27;20043;-79
2021/08/18 05:54:47;;;;;;;8.43;6.43;;;;;;;17.08;82.00;101595.78;5156616;27;20042;-79
2021/08/18 05:57:13;;;;;;;14.15;6.93;;;;;;;16.99;82.05;101581.28;5146394;27;20097;-79
2021/08/18 05:59:39;;;;;;;8.52;6.38;;;;;;;17.08;82.18;101595.78;5156387;27;20051;-79
2021/08/18 06:02:05;;;;;;;8.82;6.88;;;;;;;17.10;81.90;101593.88;5125788;27;20043;-82
2021/08/18 06:04:31;;;;;;;10.00;7.05;;;;;;;16.95;81.73;101567.41;5156146;27;20062;-80
2021/08/18 06:06:57;;;;;;;10.18;6.22;;;;;;;17.19;81.02;101580.25;5156692;27;20042;-79
2021/08/18 06:09:23;;;;;;;9.63;5.80;;;;;;;17.36;80.60;101594.34;5156773;27;20406;-80
2021/08/18 06:11:49;;;;;;;8.43;6.07;;;;;;;17.34;80.48;101577.75;5157013;27;20490;-80
2021/08/18 06:14:15;;;;;;;9.23;6.15;;;;;;;17.13;80.47;101559.44;5155341;27;20046;-78
2021/08/18 06:16:42;;;;;;;7.55;6.20;;;;;;;17.22;80.64;101588.00;5155206;27;20042;-78
2021/08/18 06:19:07;;;;;;;9.75;6.20;;;;;;;17.08;80.99;101572.03;5137152;27;20502;-85
2021/08/18 06:21:34;;;;;;;9.73;6.22;;;;;;;17.14;80.57;101563.81;5155146;27;20092;-79
2021/08/18 06:24:07;;;;;;;8.38;5.22;;;;;;;17.32;80.30;101583.09;5154949;27;20100;-79
2021/08/18 06:26:33;;;;;;;7.35;5.43;;;;;;;17.50;79.55;101590.97;5164785;27;20054;-77
2021/08/18 06:28:59;;;;;;;8.65;5.07;;;;;;;17.80;78.55;101590.25;5177513;27;20062;-78
2021/08/18 06:31:25;;;;;;;8.63;5.57;;;;;;;18.00;77.59;101582.09;5148192;27;20079;-78
2021/08/18 06:33:53;;;;;;;6.40;5.43;;;;;;;18.32;76.38;101591.81;5155864;27;20067;-78
2021/08/18 06:36:19;;;;;;;9.00;5.18;;;;;;;18.37;75.97;101577.41;5155697;27;20035;-81
2021/08/18 06:38:45;;;;;;;7.85;5.22;;;;;;;18.26;75.92;101590.41;5136626;27;20141;-81
2021/08/18 06:41:12;;;;;;;5.82;4.07;;;;;;;18.17;76.16;101585.63;5148432;27;20043;-79
2021/08/18 06:43:38;;;;;;;6.40;4.70;;;;;;;18.03;76.19;101568.75;5145721;27;20051;-79
2021/08/18 06:46:04;;;;;;;7.35;4.60;;;;;;;18.18;75.97;101595.25;5155202;27;20168;-82
2021/08/18 06:48:30;;;;;;;7.60;4.63;;;;;;;18.23;75.50;101599.31;5136846;27;20047;-80
2021/08/18 06:50:57;;;;;;;6.13;4.40;;;;;;;18.29;75.65;101594.66;5154781;27;20047;-80
2021/08/18 06:53:23;;;;;;;7.07;4.40;;;;;;;18.16;75.55;101582.13;5154772;27;20071;-79
2021/08/18 06:55:50;;;;;;;7.32;4.20;;;;;;;18.21;75.56;101585.34;5153384;27;20117;-80
2021/08/18 06:58:15;;;;;;;6.07;4.13;;;;;;;18.27;75.00;101593.88;5154533;27;20046;-79
2021/08/18 07:00:41;;;;;;;6.00;4.28;;;;;;;18.17;75.58;101597.03;5152585;27;20050;-79
2021/08/18 07:03:07;;;;;;;6.15;4.32;;;;;;;18.09;75.60;101578.13;5151668;27;20066;-80
2021/08/18 07:05:35;;;;;;;6.40;4.53;;;;;;;18.18;75.43;101597.88;5151975;27;20063;-78
2021/08/18 07:08:04;;;;;;;7.15;5.53;;;;;;;18.21;75.52;101598.56;5154711;27;20047;-79
2021/08/18 07:10:30;;;;;;;7.47;5.18;;;;;;;18.21;75.47;101603.84;5153500;27;20051;-79
2021/08/18 07:12:56;;;;;;;8.48;5.28;;;;;;;18.29;75.29;101605.22;5153913;27;20046;-83
2021/08/18 07:15:22;;;;;;;10.32;5.55;;;;;;;18.30;75.07;101591.06;5156073;27;20483;-82
2021/08/18 07:17:48;;;;;;;9.90;7.35;;;;;;;18.36;74.45;101572.22;5155046;27;20073;-84
2021/08/18 07:20:15;;;;;;;7.82;5.70;;;;;;;18.70;73.49;101583.47;5133235;27;20063;-81
2021/08/18 07:22:41;;;;;;;8.40;6.05;;;;;;;18.75;72.93;101589.34;5132727;28;20116;-79
2021/08/18 07:25:08;;;;;;;9.00;7.25;;;;;;;18.46;73.28;101559.31;5133222;28;20066;-80
2021/08/18 07:27:34;;;;;;;10.60;8.95;;;;;;;18.79;72.60;101580.28;5135969;27;20042;-79
2021/08/18 07:30:00;;;;;;;12.85;10.18;;;;;;;19.00;71.88;101583.47;5134657;27;20042;-79
2021/08/18 07:32:26;;;;;;;18.08;12.63;;;;;;;18.89;71.60;101580.59;5152252;27;20038;-79
2021/08/18 07:34:52;;;;;;;17.00;13.52;;;;;;;18.72;72.23;101573.66;5154521;27;20068;-80
2021/08/18 07:37:18;;;;;;;17.65;14.00;;;;;;;18.67;72.58;101555.41;5129946;27;20043;-80
2021/08/18 07:39:44;;;;;;;15.80;13.93;;;;;;;18.93;71.94;101570.72;5143812;27;20050;-80
2021/08/18 07:42:11;;;;;;;18.77;12.80;;;;;;;18.87;71.96;101562.19;5154415;27;20046;-84
2021/08/18 07:44:38;;;;;;;17.92;12.60;;;;;;;18.98;71.19;101569.50;5152990;27;20489;-77
2021/08/18 07:47:04;;;;;;;15.65;12.57;;;;;;;18.76;71.49;101551.38;5153984;27;20042;-79
2021/08/18 07:49:30;;;;;;;14.50;12.02;;;;;;;18.82;71.44;101573.97;5146782;27;20160;-76
2021/08/18 07:51:56;;;;;;;13.90;12.23;;;;;;;18.61;71.97;101544.34;5159552;27;20088;-79
2021/08/18 07:54:22;;;;;;;13.38;11.98;;;;;;;18.72;71.13;101550.72;5170549;27;20086;-79
2021/08/18 07:56:48;;;;;;;14.98;12.32;;;;;;;18.59;71.57;101541.81;5176010;27;21733;-77
2021/08/18 07:59:16;;;;;;;12.73;11.18;;;;;;;19.04;70.57;101552.38;5173697;27;20069;-78
2021/08/18 08:01:42;;;;;;;12.50;9.45;;;;;;;19.37;69.01;101561.84;5168471;27;20043;-80
2021/08/18 08:04:09;;;;;;;9.43;8.52;;;;;;;19.55;67.86;101556.38;5159056;27;20038;-80
2021/08/18 08:06:35;;;;;;;12.50;9.60;;;;;;;19.37;67.71;101514.22;5164220;27;20045;-86
2021/08/18 08:09:02;;;;;;;11.07;7.90;;;;;;;19.60;67.36;101571.03;5164898;27;20403;-87
2021/08/18 08:11:28;;;;;;;9.60;8.13;;;;;;;19.57;67.31;101562.44;5155169;27;20038;-83
2021/08/18 08:13:55;;;;;;;10.82;9.73;;;;;;;19.62;67.36;101568.31;5156470;27;20394;-81
2021/08/18 08:16:21;;;;;;;12.65;10.00;;;;;;;19.55;67.33;101566.97;5155840;27;20083;-79
2021/08/18 08:18:47;;;;;;;11.60;9.50;;;;;;;19.53;67.55;101567.09;5156516;27;20042;-80
2021/08/18 08:21:15;;;;;;;12.70;10.18;;;;;;;19.18;67.64;101549.75;5146944;27;20047;-87
2021/08/18 08:23:42;;;;;;;11.00;9.23;;;;;;;19.04;68.63;101574.44;5137136;27;20047;-83
2021/08/18 08:26:08;;;;;;;11.75;9.63;;;;;;;19.10;68.87;101551.19;5136307;27;20051;-83
2021/08/18 08:28:34;;;;;;;10.10;8.43;;;;;;;19.39;67.92;101562.63;5157630;27;20410;-78
2021/08/18 08:31:02;;;;;;;7.90;6.75;;;;;;;19.45;67.20;101564.91;5137615;27;20483;-81
2021/08/18 08:33:28;;;;;;;6.93;6.13;;;;;;;19.60;67.04;101563.06;5156653;27;20096;-85
2021/08/18 08:35:55;;;;;;;6.70;5.10;;;;;;;19.50;66.49;101559.31;5156560;27;20042;-86
2021/08/18 08:38:21;;;;;;;6.22;4.47;;;;;;;19.67;66.08;101556.44;5159227;27;20121;-85
2021/08/18 08:40:47;;;;;;;7.38;4.50;;;;;;;19.62;66.27;101573.59;5156796;27;20382;-85
2021/08/18 08:43:14;;;;;;;6.03;4.30;;;;;;;19.88;65.55;101565.81;5137889;27;20043;-83
2021/08/18 08:45:42;;;;;;;5.70;3.80;;;;;;;19.71;65.74;101567.69;5157549;27;20513;-82
2021/08/18 08:48:08;;;;;;;6.35;4.30;;;;;;;19.46;65.99;101547.22;5142730;27;20088;-90
2021/08/18 08:50:35;;;;;;;5.32;4.35;;;;;;;19.60;65.94;101556.94;5143954;27;20054;-85
2021/08/18 08:53:02;;;;;;;6.97;4.60;;;;;;;19.33;66.48;101529.47;5156676;27;20046;-83
2021/08/18 08:55:28;;;;;;;5.07;4.10;;;;;;;19.79;65.85;101540.75;5151989;27;20038;-82
2021/08/18 08:57:56;;;;;;;6.68;4.55;;;;;;;19.96;65.53;101561.72;5153168;27;20053;-79
2021/08/18 09:00:23;;;;;;;6.25;3.92;;;;;;;20.09;65.00;101563.59;5156932;27;20064;-80
2021/08/18 09:03:12;;;;;;;7.05;3.78;;;;;;;19.87;65.43;101559.66;5140499;27;20057;-81
2021/08/18 09:05:39;;;;;;;6.53;3.85;;;;;;;19.74;65.47;101529.56;5158539;27;20043;-81
2021/08/18 09:08:10;;;;;;;6.25;4.13;;;;;;;19.84;65.52;101559.88;5157621;27;20043;-83
2021/08/18 09:10:37;;;;;;;8.55;5.32;;;;;;;19.43;66.10;101540.31;5139853;27;20379;-82
2021/08/18 09:13:11;;;;;;;7.78;5.47;;;;;;;19.78;65.87;101569.03;5155657;27;20042;-82
2021/08/18 09:15:37;;;;;;;;;;;;;;;19.49;66.45;101573.50;5156683;27;20038;-82
2021/08/18 09:18:04;;;;;;;8.55;5.60;;;;;;;19.32;66.79;101533.03;5156223;27;20371;-83
2021/08/18 09:20:30;;;;;;;6.25;4.57;;;;;;;19.67;66.08;101551.16;5153706;27;20043;-81
2021/08/18 09:23:01;;;;;;;3.05;2.67;;;;;;;19.68;66.25;101552.84;5156098;27;20053;-84
2021/08/18 09:25:36;;;;;;;5.47;3.42;;;;;;;19.61;66.16;101559.50;5145556;27;20051;-82
2021/08/18 09:28:04;;;;;;;4.22;3.00;;;;;;;19.56;66.50;101560.75;5142579;27;20054;-80
2021/08/18 09:30:36;;;;;;;5.82;3.10;;;;;;;19.74;65.83;101564.88;5137739;27;20152;-81
2021/08/18 09:33:22;;;;;;;5.20;3.17;;;;;;;19.54;65.82;101559.97;5157846;27;20836;-81
2021/08/18 09:35:57;;;;;;;4.82;3.45;;;;;;;19.51;65.85;101542.50;5158615;27;20089;-79
2021/08/18 09:38:26;;;;;;;6.35;3.80;;;;;;;19.63;65.59;101565.53;5150714;27;20047;-81
2021/08/18 09:40:54;;;;;;;7.88;3.22;;;;;;;19.51;65.91;101547.78;5138561;27;20054;-82
2021/08/18 09:43:27;;;;;;;5.47;3.03;;;;;;;19.70;65.47;101557.22;5136456;27;20047;-84
2021/08/18 09:46:05;;;;;;;4.38;2.88;;;;;;;19.59;65.33;101540.22;5139360;27;20054;-83
2021/08/18 09:48:33;;;;;;;5.05;2.63;;;;;;;19.73;66.00;101555.22;5155768;27;20046;-80
2021/08/18 09:51:08;;;;;;;5.28;3.35;;;;;;;20.11;64.84;101543.97;5152970;27;20038;-85
2021/08/18 09:53:38;;;;;;;5.05;3.17;;;;;;;19.74;65.50;101527.78;5154837;27;20103;-83
2021/08/18 09:56:13;;;;;;;6.65;3.53;;;;;;;19.90;65.52;101537.44;5154929;27;20096;-86
2021/08/18 09:58:51;;;;;;;13.77;4.07;;;;;;;19.87;65.37;101533.16;5139317;27;20039;-88
2021/08/18 10:01:18;;;;;;;7.95;4.32;;;;;;;19.89;65.54;101539.22;5135550;27;20047;-83
2021/08/18 10:03:49;;;;;;;7.43;3.50;;;;;;;19.99;65.10;101534.19;5154776;27;20522;-85
2021/08/18 10:06:17;;;;;;;8.55;4.30;;;;;;;19.97;65.11;101534.28;5154460;27;20055;-82
2021/08/18 10:08:45;;;;;;;7.45;4.15;;;;;;;19.90;65.10;101511.78;5156826;27;20111;-88
2021/08/18 10:11:14;;;;;;;9.43;4.65;;;;;;;19.78;65.38;101525.78;5156174;27;20046;-82
2021/08/18 10:13:41;;;;;;;5.78;4.32;;;;;;;19.87;65.56;101532.34;5148160;27;20047;-87
2021/08/18 10:16:08;;;;;;;5.40;3.40;;;;;;;20.04;64.71;101542.69;5132453;27;20039;-83
2021/08/18 10:18:39;;;;;;;7.93;3.90;;;;;;;19.83;64.62;101527.25;5121769;27;20042;-83
2021/08/18 10:21:11;;;;;;;7.18;2.65;;;;;;;20.07;64.74;101537.19;5157069;27;20049;-81
2021/08/18 10:23:46;;;;;;;5.32;3.20;;;;;;;19.90;64.10;101514.44;5155196;27;20047;-82
2021/08/18 10:26:34;;;;;;;5.10;2.53;;;;;;;20.49;63.00;101534.44;5146844;27;20047;-82
2021/08/18 10:29:15;;;;;;;5.85;3.33;;;;;;;20.62;62.15;101537.13;5126637;28;20070;-84
2021/08/18 10:31:42;;;;;;;5.93;2.30;;;;;;;20.32;63.24;101540.88;5163220;27;20060;-81
2021/08/18 10:34:26;;;;;;;4.35;2.10;;;;;;;20.12;64.26;101539.53;5156007;27;20038;-81
2021/08/18 10:36:58;;;;;;;;;;;;;;;20.05;64.02;101544.38;5148608;27;20053;-83
2021/08/18 10:39:29;;;;;;;3.45;1.70;;;;;;;20.38;62.76;101529.03;5143744;27;19923;-82
2021/08/18 10:42:11;;;;;;;4.53;1.90;;;;;;;20.59;61.95;101526.72;5142415;27;20389;-82
2021/08/18 10:44:51;;;;;;;4.70;1.67;;;;;;;20.56;61.69;101530.44;5131890;27;20043;-82
2021/08/18 10:47:38;;;;;;;4.55;1.48;;;;;;;20.58;61.78;101533.84;5135860;27;20496;-82
2021/08/18 10:50:12;;;;;;;3.03;1.60;;;;;;;20.62;61.75;101534.50;5133680;27;20495;-80
2021/08/18 10:52:42;;;;;;;2.35;1.58;;;;;;;20.27;61.72;101538.53;5110595;28;20395;-82
2021/08/18 10:55:13;;;;;;;5.25;1.80;;;;;;;20.11;61.87;101533.38;5115457;28;20047;-82
2021/08/18 10:57:50;;;;;;;6.05;3.22;;;;;;;19.82;61.96;101538.75;5132859;27;20502;-82
2021/08/18 11:00:23;;;;;;;4.93;2.03;;;;;;;19.70;62.74;101541.31;5132540;28;20403;-82
2021/08/18 11:03:04;;;;;;;2.27;1.63;;;;;;;19.48;62.74;101538.25;5115499;28;20043;-83
2021/08/18 11:05:36;;;;;;;3.58;1.50;;;;;;;19.41;63.40;101536.91;5134763;27;20058;-82
2021/08/18 11:08:21;;;;;;;3.20;1.58;;;;;;;19.69;63.00;101529.88;5133071;27;20119;-81
2021/08/18 11:10:49;;;;;;;3.28;1.70;;;;;;;20.36;61.39;101525.63;5133847;28;20070;-83
2021/08/18 11:13:16;;;;;;;5.05;2.10;;;;;;;20.42;60.59;101526.06;5135888;27;20055;-84
2021/08/18 11:15:42;;;;;;;6.05;1.90;;;;;;;20.39;61.07;101528.06;5137682;27;20046;-83
2021/08/18 11:18:10;;;;;;;7.18;2.28;;;;;;;20.26;61.13;101520.94;5132596;28;20178;-86
2021/08/18 11:20:36;;;;;;;4.78;1.60;;;;;;;20.33;61.82;101533.78;5142287;27;20047;-83
2021/08/18 11:23:08;;;;;;;4.13;1.80;;;;;;;20.28;61.87;101526.97;5136692;27;20070;-85
2021/08/18 11:25:44;;;;;;;4.95;1.98;;;;;;;20.14;62.03;101517.28;5136639;27;20043;-84
2021/08/18 11:28:21;;;;;;;4.35;1.83;;;;;;;20.12;62.21;101529.78;5127997;27;20467;-84